Time;durP1;ratioP1;P1;durP2;ratioP2;P2;SDS_P1;SDS_P2;PMS_P1;PMS_P2;Temp;Humidity;BMP_temperature;BMP_pressure;BME280_temperature;BME280_humidity;BME280_pressure;Samples;Min_cycle;Max_cycle;Signal;HPM_P1;HPM_P2
2023/11/30 00:00:07;;;;;;;0.90;0.65;;;;;;;-2.10;100.00;94601.91;1029787;28;20500;-75
2023/11/30 00:00:37;;;;;;;1.70;1.36;;;;;;;-2.10;100.00;94602.69;1031933;28;20093;-74
2023/11/30 00:01:09;;;;;;;0.00;0.00;;;;;;;-2.09;100.00;94600.91;1030824;28;20023;-74
2023/11/30 00:01:39;;;;;;;1.52;0.88;;;;;;;-2.14;100.00;94593.84;1030517;28;20285;-74
2023/11/30 00:02:10;;;;;;;0.40;0.40;;;;;;;-2.19;100.00;94599.59;1027083;28;20031;-73
2023/11/30 00:02:40;;;;;;;0.20;0.20;;;;;;;-2.14;100.00;94607.47;1026895;28;20047;-75
2023/11/30 00:03:11;;;;;;;0.10;0.10;;;;;;;-2.13;100.00;94603.09;1026902;28;20402;-74
2023/11/30 00:03:41;;;;;;;0.50;0.50;;;;;;;-2.18;100.00;94602.94;1026650;28;20093;-75
2023/11/30 00:04:11;;;;;;;0.35;0.35;;;;;;;-2.14;100.00;94606.69;1023459;28;20060;-74
2023/11/30 00:04:42;;;;;;;0.10;0.10;;;;;;;-2.11;100.00;94610.59;1027936;28;20042;-74
2023/11/30 00:05:12;;;;;;;0.38;0.38;;;;;;;-2.11;100.00;94610.59;1026827;28;20042;-74
2023/11/30 00:05:43;;;;;;;1.48;1.38;;;;;;;-2.14;100.00;94610.03;1027513;28;20035;-75
2023/11/30 00:06:13;;;;;;;0.28;0.28;;;;;;;-2.15;100.00;94605.09;1022853;28;20039;-74
2023/11/30 00:06:44;;;;;;;0.60;0.60;;;;;;;-2.14;100.00;94612.59;1030631;28;20045;-74
2023/11/30 00:07:14;;;;;;;0.20;0.20;;;;;;;-2.15;100.00;94616.19;1031110;28;20034;-74
2023/11/30 00:07:45;;;;;;;1.08;0.40;;;;;;;-2.21;100.00;94605.97;1030856;28;20113;-75
2023/11/30 00:08:15;;;;;;;1.45;1.17;;;;;;;-2.16;100.00;94613.81;1027118;28;20043;-75
2023/11/30 00:08:46;;;;;;;1.27;1.10;;;;;;;-2.18;100.00;94615.78;1026549;28;20034;-75
2023/11/30 00:09:16;;;;;;;0.40;0.40;;;;;;;-2.23;100.00;94603.59;1026972;28;20054;-74
2023/11/30 00:09:47;;;;;;;0.85;0.85;;;;;;;-2.20;100.00;94616.00;1027156;28;20123;-73
2023/11/30 00:10:17;;;;;;;0.10;0.10;;;;;;;-2.19;100.00;94612.44;1026877;28;20030;-73
2023/11/30 00:10:47;;;;;;;0.40;0.40;;;;;;;-2.21;100.00;94611.09;1026444;28;20602;-73
2023/11/30 00:11:18;;;;;;;0.20;0.20;;;;;;;-2.21;100.00;94613.66;1027265;28;20034;-73
2023/11/30 00:11:48;;;;;;;0.30;0.30;;;;;;;-2.24;100.00;94607.16;1030326;28;20050;-74
2023/11/30 00:12:19;;;;;;;0.10;0.10;;;;;;;-2.24;100.00;94607.16;1027100;28;20082;-75
2023/11/30 00:12:49;;;;;;;0.47;0.47;;;;;;;-2.30;100.00;94604.66;1026783;28;20035;-74
2023/11/30 00:13:20;;;;;;;0.00;0.00;;;;;;;-2.25;100.00;94607.34;1026731;28;20042;-74
2023/11/30 00:13:50;;;;;;;0.43;0.43;;;;;;;-2.27;100.00;94607.59;1026973;28;20087;-75
2023/11/30 00:14:21;;;;;;;0.00;0.00;;;;;;;-2.30;100.00;94617.50;1026939;28;20026;-75
2023/11/30 00:14:51;;;;;;;0.97;0.73;;;;;;;-2.23;100.00;94618.22;1034498;28;20030;-73
2023/11/30 00:15:22;;;;;;;0.10;0.10;;;;;;;-2.23;100.00;94619.00;1026978;28;20043;-74
2023/11/30 00:15:52;;;;;;;1.07;0.67;;;;;;;-2.25;100.00;94615.84;1026601;28;20079;-74
2023/11/30 00:16:22;;;;;;;0.20;0.20;;;;;;;-2.27;100.00;94623.00;1026998;28;20041;-74
2023/11/30 00:16:53;;;;;;;0.22;0.22;;;;;;;-2.26;100.00;94611.72;1030866;28;20027;-75
2023/11/30 00:17:24;;;;;;;7.07;0.60;;;;;;;-2.27;100.00;94609.38;1026563;28;20039;-75
2023/11/30 00:17:54;;;;;;;0.97;0.97;;;;;;;-2.26;100.00;94611.72;1019075;29;20035;-74
2023/11/30 00:18:24;;;;;;;0.10;0.10;;;;;;;-2.30;100.00;94600.28;1031048;28;20041;-74
2023/11/30 00:18:55;;;;;;;0.00;0.00;;;;;;;-2.30;100.00;94602.84;1026840;28;20549;-74
2023/11/30 00:19:26;;;;;;;0.23;0.23;;;;;;;-2.24;100.00;94614.88;1026917;28;20039;-75
2023/11/30 00:19:56;;;;;;;0.97;0.93;;;;;;;-2.27;100.00;94612.72;1018877;29;20028;-74
2023/11/30 00:20:27;;;;;;;0.52;0.52;;;;;;;-2.24;100.00;94621.78;1019121;28;20027;-73
2023/11/30 00:20:57;;;;;;;0.93;0.73;;;;;;;-2.25;100.00;94610.72;1026854;28;20090;-75
2023/11/30 00:21:28;;;;;;;0.38;0.38;;;;;;;-2.26;100.00;94606.56;1030644;28;20030;-72
2023/11/30 00:21:58;;;;;;;0.55;0.55;;;;;;;-2.24;100.00;94612.31;1026428;28;20088;-72
2023/11/30 00:22:28;;;;;;;0.10;0.10;;;;;;;-2.24;100.00;94612.31;1022531;28;20031;-74
2023/11/30 00:22:59;;;;;;;0.60;0.60;;;;;;;-2.23;100.00;94610.50;1018700;29;20483;-74
2023/11/30 00:23:29;;;;;;;0.43;0.43;;;;;;;-2.29;100.00;94601.84;1026773;28;20031;-75
2023/11/30 00:24:00;;;;;;;0.93;0.93;;;;;;;-2.21;100.00;94613.66;1022732;28;20032;-73
2023/11/30 00:24:30;;;;;;;0.23;0.23;;;;;;;-2.20;100.00;94613.44;1022907;29;20035;-75
2023/11/30 00:25:01;;;;;;;0.45;0.45;;;;;;;-2.19;100.00;94615.00;1022964;28;20027;-75
2023/11/30 00:25:33;;;;;;;0.43;0.40;;;;;;;-2.16;100.00;94624.09;1030457;28;20037;-75
2023/11/30 00:26:03;;;;;;;0.10;0.10;;;;;;;-2.19;100.00;94611.66;1032268;28;20509;-74
2023/11/30 00:26:34;;;;;;;0.30;0.30;;;;;;;-2.15;100.00;94620.50;1032134;28;20070;-74
2023/11/30 00:27:04;;;;;;;0.20;0.20;;;;;;;-2.14;100.00;94617.75;1031152;28;20034;-73
2023/11/30 00:27:34;;;;;;;0.10;0.10;;;;;;;-2.15;100.00;94616.19;1028849;28;20506;-74
2023/11/30 00:28:05;;;;;;;0.30;0.30;;;;;;;-2.14;100.00;94609.25;1022209;29;20563;-75
2023/11/30 00:28:35;;;;;;;0.20;0.20;;;;;;;-2.16;100.00;94614.59;1022002;29;20040;-76
2023/11/30 00:29:06;;;;;;;0.10;0.10;;;;;;;-2.15;100.00;94613.63;1026427;28;20030;-73
2023/11/30 00:29:36;;;;;;;1.77;1.10;;;;;;;-2.14;100.00;94615.19;1030892;28;20069;-75
2023/11/30 00:30:08;;;;;;;0.10;0.10;;;;;;;-2.15;100.00;94616.19;1030147;28;20031;-74
2023/11/30 00:30:40;;;;;;;0.10;0.10;;;;;;;-2.20;100.00;94603.16;1030037;28;20053;-74
2023/11/30 00:31:11;;;;;;;0.20;0.20;;;;;;;-2.23;100.00;94598.44;1018936;29;20038;-74
2023/11/30 00:31:41;;;;;;;0.57;0.57;;;;;;;-2.16;100.00;94617.16;1022503;29;21740;-75
2023/11/30 00:32:12;;;;;;;0.25;0.25;;;;;;;-2.16;100.00;94624.88;1023112;28;20027;-75
2023/11/30 00:32:42;;;;;;;0.73;0.73;;;;;;;-2.16;100.00;94614.59;1023639;28;20034;-75
2023/11/30 00:33:13;;;;;;;1.65;1.55;;;;;;;-2.18;100.00;94616.59;1034793;28;20104;-74
2023/11/30 00:33:43;;;;;;;0.90;0.77;;;;;;;-2.24;100.00;94608.94;1034679;28;20026;-74
2023/11/30 00:34:14;;;;;;;0.35;0.35;;;;;;;-2.24;100.00;94612.31;1030931;28;20030;-75
2023/11/30 00:34:44;;;;;;;0.00;0.00;;;;;;;-2.25;100.00;94620.19;1022643;29;20031;-74
2023/11/30 00:35:15;;;;;;;0.00;0.00;;;;;;;-2.22;100.00;94612.06;1022966;29;20694;-74
2023/11/30 00:35:45;;;;;;;0.05;0.05;;;;;;;-2.24;100.00;94612.31;1026935;28;20113;-74
2023/11/30 00:36:15;;;;;;;2.22;2.05;;;;;;;-2.23;100.00;94608.72;1030363;28;20034;-75
2023/11/30 00:36:46;;;;;;;0.43;0.43;;;;;;;-2.19;100.00;94612.44;1034222;28;20026;-76
2023/11/30 00:37:16;;;;;;;0.60;0.60;;;;;;;-2.19;100.00;94615.00;1030857;28;20046;-74
2023/11/30 00:37:47;;;;;;;1.25;0.22;;;;;;;-2.20;100.00;94612.66;1027265;28;20649;-73
2023/11/30 00:38:17;;;;;;;0.00;0.00;;;;;;;-2.22;100.00;94610.28;1026932;28;20030;-74
2023/11/30 00:38:48;;;;;;;0.65;0.65;;;;;;;-2.21;100.00;94613.66;1022599;29;20034;-74
2023/11/30 00:39:18;;;;;;;0.10;0.10;;;;;;;-2.21;100.00;94609.31;1026642;28;20034;-73
2023/11/30 00:39:49;;;;;;;3.53;0.43;;;;;;;-2.24;100.00;94612.31;1031615;28;20023;-74
2023/11/30 00:40:19;;;;;;;0.65;0.65;;;;;;;-2.20;100.00;94610.09;1030780;28;20062;-74
2023/11/30 00:40:50;;;;;;;0.35;0.30;;;;;;;-2.18;100.00;94611.47;1030284;28;20022;-74
2023/11/30 00:41:20;;;;;;;0.68;0.68;;;;;;;-2.19;100.00;94612.44;1030682;28;20031;-75
2023/11/30 00:41:50;;;;;;;0.60;0.43;;;;;;;-2.25;100.00;94597.06;1026223;28;20022;-75
2023/11/30 00:42:21;;;;;;;0.10;0.10;;;;;;;-2.23;100.00;94598.44;1031027;28;20023;-75
2023/11/30 00:42:51;;;;;;;0.80;0.80;;;;;;;-2.18;100.00;94603.75;1031044;28;20026;-74
2023/11/30 00:43:22;;;;;;;0.30;0.30;;;;;;;-2.18;100.00;94611.47;1029839;28;20045;-75
2023/11/30 00:43:52;;;;;;;0.32;0.32;;;;;;;-2.18;100.00;94608.91;1023051;29;20031;-75
2023/11/30 00:44:23;;;;;;;1.08;0.98;;;;;;;-2.17;100.00;94602.75;1022774;28;20043;-74
2023/11/30 00:44:53;;;;;;;0.08;0.08;;;;;;;-2.14;100.00;94611.81;1026469;28;20054;-75
2023/11/30 00:45:24;;;;;;;0.52;0.30;;;;;;;-2.15;100.00;94611.03;1031059;28;20075;-75
2023/11/30 00:45:54;;;;;;;1.00;1.00;;;;;;;-2.22;100.00;94600.00;1030663;28;20022;-74
2023/11/30 00:46:25;;;;;;;0.05;0.05;;;;;;;-2.16;100.00;94609.44;1023310;28;20591;-74
2023/11/30 00:46:55;;;;;;;0.13;0.13;;;;;;;-2.20;100.00;94602.38;1018706;29;20035;-74
2023/11/30 00:47:25;;;;;;;0.85;0.52;;;;;;;-2.29;100.00;94583.09;1023016;28;20038;-76
2023/11/30 00:47:56;;;;;;;0.00;0.00;;;;;;;-2.16;100.00;94609.44;1027055;28;20074;-75
2023/11/30 00:48:26;;;;;;;0.20;0.20;;;;;;;-2.18;100.00;94601.19;1035162;28;20489;-73
2023/11/30 00:48:57;;;;;;;0.40;0.40;;;;;;;-2.24;100.00;94596.88;1034759;28;20030;-74
2023/11/30 00:49:27;;;;;;;0.30;0.30;;;;;;;-2.19;100.00;94611.66;1027583;28;20031;-75
2023/11/30 00:49:58;;;;;;;0.10;0.10;;;;;;;-2.20;100.00;94598.03;1022430;29;20027;-75
2023/11/30 00:50:28;;;;;;;0.77;0.77;;;;;;;-2.20;100.00;94603.16;1022922;29;20035;-75
2023/11/30 00:50:59;;;;;;;0.10;0.10;;;;;;;-2.20;100.00;94598.03;1018842;28;20548;-74
2023/11/30 00:51:29;;;;;;;0.50;0.50;;;;;;;-2.18;100.00;94602.94;1018476;28;20034;-74
2023/11/30 00:52:00;;;;;;;0.73;0.43;;;;;;;-2.20;100.00;94603.16;1022421;29;20562;-75
2023/11/30 00:52:30;;;;;;;0.38;0.38;;;;;;;-2.26;100.00;94595.53;1018608;29;20088;-76
2023/11/30 00:53:01;;;;;;;0.40;0.40;;;;;;;-2.23;100.00;94608.72;1018583;29;20038;-74
2023/11/30 00:53:31;;;;;;;0.08;0.08;;;;;;;-2.22;100.00;94607.72;1034554;28;20653;-74
2023/11/30 00:54:02;;;;;;;0.38;0.38;;;;;;;-2.24;100.00;94607.16;1034860;28;20081;-75
2023/11/30 00:54:33;;;;;;;0.10;0.04;;;;;;;-2.17;100.00;94612.25;1034923;28;20044;-75
2023/11/30 00:55:04;;;;;;;0.30;0.30;;;;;;;-2.16;100.00;94613.81;1034551;28;20056;-75
2023/11/30 00:55:34;;;;;;;0.65;0.65;;;;;;;-2.17;100.00;94607.09;1034401;28;20033;-75
2023/11/30 00:56:06;;;;;;;0.20;0.20;;;;;;;-2.19;100.00;94611.66;1031052;28;20030;-74
2023/11/30 00:56:36;;;;;;;0.10;0.10;;;;;;;-2.20;100.00;94612.66;1026478;28;20018;-74
2023/11/30 00:57:07;;;;;;;0.32;0.32;;;;;;;-2.19;100.00;94617.56;1026351;28;20077;-74
2023/11/30 00:57:37;;;;;;;0.55;0.55;;;;;;;-2.19;100.00;94615.00;1024839;28;20046;-74
2023/11/30 00:58:08;;;;;;;0.87;0.83;;;;;;;-2.21;100.00;94603.38;1023510;28;20034;-74
2023/11/30 00:58:38;;;;;;;0.28;0.28;;;;;;;-2.17;100.00;94607.88;1022749;28;20399;-75
2023/11/30 00:59:08;;;;;;;0.10;0.10;;;;;;;-2.17;100.00;94602.75;1022477;28;20035;-75
2023/11/30 00:59:39;;;;;;;0.13;0.13;;;;;;;-2.15;100.00;94603.34;1020862;28;20031;-75
2023/11/30 01:00:10;;;;;;;0.30;0.30;;;;;;;-2.16;100.00;94600.97;1030734;28;20721;-74
2023/11/30 01:00:41;;;;;;;0.12;0.12;;;;;;;-2.13;100.00;94610.81;1032195;28;20552;-74
2023/11/30 01:01:11;;;;;;;0.00;0.00;;;;;;;-2.19;100.00;94599.59;1030600;28;20022;-75
2023/11/30 01:01:41;;;;;;;0.63;0.35;;;;;;;-2.19;100.00;94604.72;1030360;28;21667;-75
2023/11/30 01:02:12;;;;;;;0.15;0.15;;;;;;;-2.19;100.00;94607.31;1030616;28;20088;-75
2023/11/30 01:02:42;;;;;;;0.20;0.15;;;;;;;-2.26;100.00;94590.38;1026903;28;20030;-73
2023/11/30 01:03:13;;;;;;;1.50;1.42;;;;;;;-2.27;100.00;94594.72;1026352;28;20027;-75
2023/11/30 01:03:43;;;;;;;0.00;0.00;;;;;;;-2.26;100.00;94600.66;1029697;28;20636;-74
2023/11/30 01:04:14;;;;;;;1.38;1.27;;;;;;;-2.27;100.00;94599.88;1026938;28;20033;-74
2023/11/30 01:04:44;;;;;;;0.10;0.10;;;;;;;-2.27;100.00;94602.44;1030767;28;20026;-75
2023/11/30 01:05:15;;;;;;;0.10;0.10;;;;;;;-2.27;100.00;94602.44;1030601;28;20121;-75
2023/11/30 01:05:45;;;;;;;0.28;0.28;;;;;;;-2.27;100.00;94607.59;1026774;28;20125;-75
2023/11/30 01:06:15;;;;;;;0.35;0.35;;;;;;;-2.28;100.00;94597.50;1022541;29;20022;-74
2023/11/30 01:06:48;;;;;;;0.30;0.30;;;;;;;-2.34;100.00;94594.00;1014841;29;20571;-76
2023/11/30 01:07:18;;;;;;;0.10;0.10;;;;;;;-2.29;100.00;94603.63;1018749;29;20019;-75
2023/11/30 01:07:49;;;;;;;0.35;0.35;;;;;;;-2.37;100.00;94592.63;1019522;28;20039;-75
2023/11/30 01:08:19;;;;;;;0.20;0.20;;;;;;;-2.31;100.00;94596.16;1022897;29;20513;-74
2023/11/30 01:08:49;;;;;;;0.40;0.40;;;;;;;-2.33;100.00;94600.72;1023649;28;20023;-74
2023/11/30 01:09:20;;;;;;;0.10;0.10;;;;;;;-2.36;100.00;94598.56;1022813;29;20083;-75
2023/11/30 01:09:50;;;;;;;0.30;0.30;;;;;;;-2.40;100.00;94593.06;1018631;29;20035;-75
2023/11/30 01:10:21;;;;;;;0.50;0.50;;;;;;;-2.32;100.00;94599.69;1026540;28;20438;-75
2023/11/30 01:10:51;;;;;;;0.68;0.68;;;;;;;-2.29;100.00;94596.72;1030548;28;20018;-76
2023/11/30 01:11:22;;;;;;;0.20;0.20;;;;;;;-2.32;100.00;94599.69;1026630;28;20027;-75
2023/11/30 01:11:52;;;;;;;0.00;0.00;;;;;;;-2.28;100.00;94600.06;1029938;28;20030;-76
2023/11/30 01:12:26;;;;;;;0.32;0.32;;;;;;;-2.29;100.00;94594.16;1021218;29;20027;-74
2023/11/30 01:12:56;;;;;;;0.06;0.06;;;;;;;-2.26;100.00;94598.88;1019017;29;20515;-75
2023/11/30 01:13:27;;;;;;;0.00;0.00;;;;;;;-2.26;100.00;94601.44;1022789;28;20023;-73
2023/11/30 01:13:57;;;;;;;0.10;0.10;;;;;;;-2.27;100.00;94599.88;1027299;28;20505;-74
2023/11/30 01:14:28;;;;;;;0.95;0.95;;;;;;;-2.29;100.00;94599.28;1026425;28;20446;-74
2023/11/30 01:14:58;;;;;;;0.25;0.25;;;;;;;-2.26;100.00;94598.09;1026931;28;20038;-75
2023/11/30 01:15:29;;;;;;;0.43;0.43;;;;;;;-2.27;100.00;94592.16;1026358;28;20447;-75
2023/11/30 01:15:59;;;;;;;0.20;0.20;;;;;;;-2.33;100.00;94590.44;1022637;29;20023;-75
2023/11/30 01:16:30;;;;;;;1.00;0.57;;;;;;;-2.26;100.00;94598.09;1021329;28;20023;-75
2023/11/30 01:17:00;;;;;;;0.00;0.00;;;;;;;-2.24;100.00;94598.69;1030634;28;20437;-74
2023/11/30 01:17:31;;;;;;;0.38;0.38;;;;;;;-2.25;100.00;94599.66;1030431;28;20019;-75
2023/11/30 01:18:03;;;;;;;0.43;0.38;;;;;;;-2.25;100.00;94595.28;1030827;28;20030;-74
2023/11/30 01:18:34;;;;;;;0.72;0.64;;;;;;;-2.25;100.00;94600.44;1030312;28;20014;-75
2023/11/30 01:19:05;;;;;;;0.10;0.10;;;;;;;-2.27;100.00;94602.44;1026820;28;20550;-75
2023/11/30 01:19:35;;;;;;;1.17;0.35;;;;;;;-2.27;100.00;94601.66;1026703;28;20062;-74
2023/11/30 01:20:07;;;;;;;0.10;0.10;;;;;;;-2.31;100.00;94592.78;1026286;28;20023;-75
2023/11/30 01:20:37;;;;;;;0.08;0.08;;;;;;;-2.28;100.00;94600.88;1024795;28;20662;-74
2023/11/30 01:21:08;;;;;;;0.28;0.28;;;;;;;-2.28;100.00;94605.22;1022658;28;20067;-74
2023/11/30 01:21:38;;;;;;;0.22;0.22;;;;;;;-2.29;100.00;94599.28;1026123;28;20518;-74
2023/11/30 01:22:09;;;;;;;0.10;0.10;;;;;;;-2.33;100.00;94593.00;1027279;28;20023;-74
2023/11/30 01:22:39;;;;;;;4.27;1.07;;;;;;;-2.35;100.00;94597.56;1022327;28;20039;-76
2023/11/30 01:23:10;;;;;;;0.32;0.32;;;;;;;-2.35;100.00;94600.13;1026613;28;20102;-75
2023/11/30 01:23:40;;;;;;;0.53;0.50;;;;;;;-2.50;100.00;94576.56;1026448;28;20095;-74
2023/11/30 01:24:12;;;;;;;2.02;1.22;;;;;;;-2.35;100.00;94596.78;1023879;28;20047;-75
2023/11/30 01:24:42;;;;;;;0.40;0.40;;;;;;;-2.42;100.00;94589.13;1026802;28;20046;-74
2023/11/30 01:25:13;;;;;;;0.32;0.32;;;;;;;-2.41;100.00;94598.41;1026495;28;20038;-74
2023/11/30 01:25:44;;;;;;;0.56;0.56;;;;;;;-2.40;100.00;94605.13;1017418;29;20046;-75
2023/11/30 01:26:14;;;;;;;1.07;0.33;;;;;;;-2.46;100.00;94600.81;1019309;29;20027;-74
2023/11/30 01:26:45;;;;;;;0.30;0.15;;;;;;;-2.39;100.00;94604.91;1026511;28;20034;-75
2023/11/30 01:27:16;;;;;;;0.20;0.20;;;;;;;-2.47;100.00;94588.97;1030933;28;20085;-74
2023/11/30 01:27:47;;;;;;;0.00;0.00;;;;;;;-2.40;100.00;94611.03;1030467;28;20802;-73
2023/11/30 01:28:17;;;;;;;0.57;0.57;;;;;;;-2.39;100.00;94592.06;1018578;29;20036;-72
2023/11/30 01:28:47;;;;;;;0.30;0.30;;;;;;;-2.38;100.00;94600.56;1023131;28;20071;-75
2023/11/30 01:29:18;;;;;;;0.98;0.98;;;;;;;-2.38;100.00;94603.13;1025832;28;20015;-74
2023/11/30 01:29:48;;;;;;;0.10;0.10;;;;;;;-2.43;100.00;94595.25;1023232;28;20050;-74
2023/11/30 01:30:20;;;;;;;0.20;0.20;;;;;;;-2.39;100.00;94601.53;1018562;29;20039;-74
2023/11/30 01:30:51;;;;;;;0.20;0.20;;;;;;;-2.38;100.00;94596.22;1018259;29;20027;-74
2023/11/30 01:31:22;;;;;;;1.42;1.27;;;;;;;-2.40;100.00;94587.13;1027355;28;20027;-75
2023/11/30 01:31:52;;;;;;;0.10;0.10;;;;;;;-2.34;100.00;94595.78;1029601;28;20038;-75
2023/11/30 01:32:23;;;;;;;0.10;0.10;;;;;;;-2.32;100.00;94602.28;1022498;29;20027;-75
2023/11/30 01:32:53;;;;;;;0.08;0.08;;;;;;;-2.43;100.00;94582.41;1022748;28;20519;-75
2023/11/30 01:33:23;;;;;;;0.03;0.03;;;;;;;-2.34;100.00;94596.56;1026570;28;20522;-75
2023/11/30 01:33:54;;;;;;;0.10;0.10;;;;;;;-2.35;100.00;94597.56;1030551;28;20023;-74
2023/11/30 01:34:24;;;;;;;0.10;0.10;;;;;;;-2.32;100.00;94599.69;1026645;28;20038;-74
2023/11/30 01:34:55;;;;;;;0.32;0.28;;;;;;;-2.31;100.00;94597.91;1026432;28;20034;-74
2023/11/30 01:35:28;;;;;;;3.03;0.73;;;;;;;-2.30;100.00;94597.72;1026788;28;20069;-74
2023/11/30 01:35:59;;;;;;;0.22;0.22;;;;;;;-2.31;100.00;94598.72;1032384;28;20027;-75
2023/11/30 01:36:29;;;;;;;0.10;0.10;;;;;;;-2.31;100.00;94601.28;1030962;28;20113;-74
2023/11/30 01:37:00;;;;;;;0.20;0.20;;;;;;;-2.30;100.00;94596.94;1030196;28;20510;-74
2023/11/30 01:37:31;;;;;;;0.47;0.47;;;;;;;-2.32;100.00;94599.69;1030161;28;20398;-76
2023/11/30 01:38:02;;;;;;;0.28;0.28;;;;;;;-2.31;100.00;94596.16;1026798;28;20127;-75
2023/11/30 01:38:32;;;;;;;0.25;0.25;;;;;;;-2.31;100.00;94600.47;1026877;28;20442;-74
2023/11/30 01:39:03;;;;;;;0.13;0.13;;;;;;;-2.39;100.00;94589.47;1030616;28;20037;-74
2023/11/30 01:39:33;;;;;;;0.20;0.20;;;;;;;-2.35;100.00;94594.19;1027361;28;20438;-75
2023/11/30 01:40:04;;;;;;;1.02;0.73;;;;;;;-2.33;100.00;94599.94;1030567;28;20097;-74
2023/11/30 01:40:35;;;;;;;1.00;0.50;;;;;;;-2.37;100.00;94589.28;1018331;29;20061;-73
2023/11/30 01:41:05;;;;;;;0.10;0.10;;;;;;;-2.37;100.00;94591.84;1019014;29;20034;-76
2023/11/30 01:41:36;;;;;;;0.70;0.70;;;;;;;-2.39;100.00;94588.69;1019213;29;20522;-74
2023/11/30 01:42:06;;;;;;;0.10;0.10;;;;;;;-2.41;100.00;94590.72;1022010;28;20023;-73
2023/11/30 01:42:37;;;;;;;2.17;0.67;;;;;;;-2.44;100.00;94589.34;1028580;28;20030;-74
2023/11/30 01:43:08;;;;;;;0.10;0.10;;;;;;;-2.40;100.00;94597.41;1028620;28;20022;-74
2023/11/30 01:43:38;;;;;;;0.20;0.20;;;;;;;-2.41;100.00;94591.50;1030825;28;20030;-74
2023/11/30 01:44:09;;;;;;;0.20;0.20;;;;;;;-2.39;100.00;94598.97;1022398;29;20027;-74
2023/11/30 01:44:40;;;;;;;0.00;0.00;;;;;;;-2.43;100.00;94592.69;1018261;29;20108;-74
2023/11/30 01:45:10;;;;;;;3.00;1.20;;;;;;;-2.46;100.00;94582.84;1022106;29;20055;-74
2023/11/30 01:45:40;;;;;;;1.55;1.45;;;;;;;-2.41;100.00;94590.72;1022534;28;20031;-74
2023/11/30 01:46:11;;;;;;;0.30;0.30;;;;;;;-2.42;100.00;94599.41;1022431;29;20034;-75
2023/11/30 01:46:42;;;;;;;0.40;0.40;;;;;;;-2.46;100.00;94593.09;1027266;28;20014;-75
2023/11/30 01:47:12;;;;;;;0.00;0.00;;;;;;;-2.51;100.00;94591.19;1034716;28;20030;-74
2023/11/30 01:47:43;;;;;;;0.60;0.60;;;;;;;-2.48;100.00;94595.09;1030847;28;20107;-74
2023/11/30 01:48:13;;;;;;;0.10;0.10;;;;;;;-2.50;100.00;94592.75;1033410;28;20014;-74
2023/11/30 01:48:44;;;;;;;1.70;0.77;;;;;;;-2.47;100.00;94600.03;1024007;28;20026;-74
2023/11/30 01:49:14;;;;;;;1.97;0.87;;;;;;;-2.47;100.00;94586.41;1023781;28;20467;-74
2023/11/30 01:49:45;;;;;;;0.17;0.17;;;;;;;-2.51;100.00;94582.69;1031545;28;20093;-75
2023/11/30 01:50:15;;;;;;;0.30;0.30;;;;;;;-2.46;100.00;94598.25;1026345;28;20050;-74
2023/11/30 01:50:46;;;;;;;0.10;0.10;;;;;;;-2.50;100.00;94581.69;1025639;28;20534;-74
2023/11/30 01:51:16;;;;;;;0.87;0.87;;;;;;;-2.42;100.00;94594.25;1026301;28;20026;-75
2023/11/30 01:51:47;;;;;;;0.70;0.70;;;;;;;-2.45;100.00;94584.41;1025717;28;20027;-76
2023/11/30 01:52:17;;;;;;;0.75;0.75;;;;;;;-2.39;100.00;94593.84;1026490;28;20626;-76
2023/11/30 01:52:48;;;;;;;0.30;0.30;;;;;;;-2.46;100.00;94582.84;1026189;28;20085;-74
2023/11/30 01:53:18;;;;;;;0.73;0.38;;;;;;;-2.42;100.00;94587.34;1026652;28;20026;-74
2023/11/30 01:53:49;;;;;;;0.10;0.10;;;;;;;-2.42;100.00;94583.97;1026193;28;20014;-74
2023/11/30 01:54:19;;;;;;;0.40;0.40;;;;;;;-2.43;100.00;94579.84;1026630;28;20014;-75
2023/11/30 01:54:50;;;;;;;1.30;0.77;;;;;;;-2.43;100.00;94592.69;1027331;28;20030;-74
2023/11/30 01:55:20;;;;;;;0.17;0.17;;;;;;;-2.48;100.00;94577.94;1030733;28;20019;-74
2023/11/30 01:55:51;;;;;;;0.20;0.20;;;;;;;-2.43;100.00;94582.41;1027304;28;20046;-74
2023/11/30 01:56:22;;;;;;;0.10;0.10;;;;;;;-2.49;100.00;94578.91;1020673;29;20078;-75
2023/11/30 01:56:52;;;;;;;0.30;0.30;;;;;;;-2.43;100.00;94579.84;1025628;28;20458;-74
2023/11/30 01:57:23;;;;;;;0.10;0.10;;;;;;;-2.43;100.00;94579.84;1030503;28;20053;-76
2023/11/30 01:57:53;;;;;;;0.80;0.80;;;;;;;-2.48;100.00;94569.41;1030120;28;20449;-75
2023/11/30 01:58:23;;;;;;;0.65;0.65;;;;;;;-2.44;100.00;94575.72;1030254;28;20026;-74
2023/11/30 01:58:54;;;;;;;5.38;0.85;;;;;;;-2.49;100.00;94567.84;1034023;28;20033;-74
2023/11/30 01:59:24;;;;;;;0.08;0.08;;;;;;;-2.48;100.00;94564.28;1026079;28;20553;-74
2023/11/30 01:59:55;;;;;;;0.70;0.70;;;;;;;-2.44;100.00;94573.94;1018322;29;20127;-75
2023/11/30 02:00:27;;;;;;;0.05;0.05;;;;;;;-2.45;100.00;94580.06;1020066;29;20066;-75
2023/11/30 02:00:57;;;;;;;0.30;0.30;;;;;;;-2.52;100.00;94563.13;1019964;29;20024;-74
2023/11/30 02:01:28;;;;;;;0.08;0.08;;;;;;;-2.45;100.00;94579.25;1030415;28;20478;-74
2023/11/30 02:01:58;;;;;;;3.23;0.87;;;;;;;-2.49;100.00;94572.97;1029200;28;20022;-74
2023/11/30 02:02:29;;;;;;;0.15;0.15;;;;;;;-2.48;100.00;94569.41;1017456;29;20654;-74
2023/11/30 02:03:00;;;;;;;0.10;0.10;;;;;;;-2.50;100.00;94573.97;1018971;29;20020;-75
2023/11/30 02:03:32;;;;;;;0.50;0.43;;;;;;;-2.53;100.00;94564.13;1026016;28;20054;-75
2023/11/30 02:04:15;;;;;;;0.30;0.30;;;;;;;-2.46;100.00;94567.44;1030925;28;20569;-76
2023/11/30 02:04:45;;;;;;;0.20;0.20;;;;;;;-2.52;100.00;94555.41;1030417;28;20041;-75
2023/11/30 02:05:16;;;;;;;0.30;0.30;;;;;;;-2.54;100.00;94567.69;1026537;28;20030;-74
2023/11/30 02:05:46;;;;;;;0.00;0.00;;;;;;;-2.48;100.00;94565.09;1027269;28;20499;-75
2023/11/30 02:06:18;;;;;;;0.20;0.20;;;;;;;-2.47;100.00;94569.22;1022622;28;20023;-75
2023/11/30 02:06:49;;;;;;;0.10;0.10;;;;;;;-2.52;100.00;94563.91;1026659;28;20781;-75
2023/11/30 02:07:20;;;;;;;0.32;0.32;;;;;;;-2.54;100.00;94560.00;1023774;29;20043;-76
2023/11/30 02:07:50;;;;;;;0.10;0.10;;;;;;;-2.48;100.00;94564.28;1027813;28;20050;-75
2023/11/30 02:08:21;;;;;;;2.67;1.33;;;;;;;-2.48;100.00;94571.97;1032797;28;20706;-74
2023/11/30 02:08:51;;;;;;;0.00;0.00;;;;;;;-2.52;100.00;94563.91;1031281;28;20034;-75
2023/11/30 02:09:22;;;;;;;0.93;0.57;;;;;;;-2.55;100.00;94563.53;1032707;28;20025;-75
2023/11/30 02:09:52;;;;;;;1.77;0.45;;;;;;;-2.55;100.00;94564.31;1030392;28;20053;-76
2023/11/30 02:10:22;;;;;;;0.30;0.30;;;;;;;-2.52;100.00;94563.13;1022545;29;20019;-75
2023/11/30 02:10:53;;;;;;;0.20;0.20;;;;;;;-2.49;100.00;94567.84;1026506;28;20125;-74
2023/11/30 02:11:23;;;;;;;0.28;0.28;;;;;;;-2.55;100.00;94548.91;1026577;28;20022;-75
2023/11/30 02:11:54;;;;;;;0.10;0.10;;;;;;;-2.55;100.00;94554.06;1025653;28;20375;-75
2023/11/30 02:12:24;;;;;;;0.73;0.73;;;;;;;-2.52;100.00;94563.91;1034524;28;20263;-75
2023/11/30 02:12:55;;;;;;;0.17;0.17;;;;;;;-2.57;100.00;94552.72;1026123;28;20037;-75
2023/11/30 02:13:28;;;;;;;0.00;0.00;;;;;;;-2.49;100.00;94562.72;1025857;28;20033;-74
2023/11/30 02:13:58;;;;;;;0.40;0.40;;;;;;;-2.51;100.00;94562.94;1023868;28;20027;-74
2023/11/30 02:14:32;;;;;;;0.00;0.00;;;;;;;-2.51;100.00;94559.59;1030242;28;20054;-75
2023/11/30 02:15:03;;;;;;;0.10;0.10;;;;;;;-2.49;100.00;94563.50;1027410;28;20037;-75
2023/11/30 02:15:33;;;;;;;0.10;0.10;;;;;;;-2.51;100.00;94552.66;1028858;28;20042;-73
2023/11/30 02:16:04;;;;;;;0.30;0.30;;;;;;;-2.47;100.00;94551.25;1026531;28;20259;-75
2023/11/30 02:16:34;;;;;;;0.63;0.63;;;;;;;-2.48;100.00;94549.66;1021992;29;20047;-75
2023/11/30 02:17:05;;;;;;;0.70;0.70;;;;;;;-2.45;100.00;94551.81;1028279;28;20031;-75
2023/11/30 02:17:35;;;;;;;1.00;0.67;;;;;;;-2.50;100.00;94545.75;1029591;28;20031;-76
2023/11/30 02:18:06;;;;;;;0.60;0.60;;;;;;;-2.43;100.00;94546.47;1032473;28;20042;-74
2023/11/30 02:18:36;;;;;;;0.10;0.10;;;;;;;-2.44;100.00;94547.47;1026520;28;20815;-75
2023/11/30 02:19:07;;;;;;;0.33;0.30;;;;;;;-2.44;100.00;94550.03;1028276;28;20035;-74
2023/11/30 02:19:39;;;;;;;0.00;0.00;;;;;;;-2.43;100.00;94546.47;1022450;28;20047;-74
2023/11/30 02:20:10;;;;;;;0.02;0.02;;;;;;;-2.48;100.00;94538.59;1022270;29;20034;-75
2023/11/30 02:20:40;;;;;;;0.40;0.40;;;;;;;-2.43;100.00;94546.47;1029071;28;20425;-75
2023/11/30 02:21:11;;;;;;;2.07;1.80;;;;;;;-2.43;100.00;94546.47;1030442;28;20037;-75
2023/11/30 02:21:49;;;;;;;0.53;0.23;;;;;;;-2.41;100.00;94540.13;1025825;28;20079;-74
2023/11/30 02:22:20;;;;;;;0.10;0.10;;;;;;;-2.40;100.00;94544.25;1024014;28;20031;-75